createdAt,value
2022-10-25T00:02:24.703Z,5.45
2022-10-25T00:05:14.390Z,6.13
2022-10-25T00:07:59.873Z,5.30
2022-10-25T00:10:45.630Z,5.68
2022-10-25T00:13:31.335Z,6.07
2022-10-25T00:16:18.785Z,5.93
2022-10-25T00:19:05.207Z,6.18
2022-10-25T00:21:50.746Z,6.20
2022-10-25T00:24:35.923Z,5.40
2022-10-25T00:27:21.540Z,4.70
2022-10-25T00:30:08.277Z,4.75
2022-10-25T00:32:54.463Z,4.78
2022-10-25T00:35:40.194Z,3.83
2022-10-25T00:38:25.454Z,4.82
2022-10-25T00:41:12.904Z,3.97
2022-10-25T00:44:35.832Z,3.97
2022-10-25T00:47:21.188Z,4.05
2022-10-25T00:50:58.401Z,4.20
2022-10-25T00:53:43.869Z,4.18
2022-10-25T00:56:33.979Z,4.32
2022-10-25T00:59:24.693Z,5.00
2022-10-25T01:02:11.223Z,4.35
2022-10-25T01:04:56.786Z,4.45
2022-10-25T01:07:42.076Z,5.07
2022-10-25T01:10:27.655Z,4.18
2022-10-25T01:13:13.010Z,3.65
2022-10-25T01:16:10.563Z,4.30
2022-10-25T01:18:56.106Z,4.22
2022-10-25T01:21:49.807Z,4.32
2022-10-25T01:25:03.232Z,3.72
2022-10-25T01:27:59.716Z,3.90
2022-10-25T01:31:06.569Z,4.07
2022-10-25T01:34:06.177Z,4.05
2022-10-25T01:37:11.222Z,5.38
2022-10-25T01:40:08.996Z,4.47
2022-10-25T01:43:03.220Z,4.43
2022-10-25T01:46:11.226Z,5.07
2022-10-25T01:49:04.251Z,5.05
2022-10-25T01:51:49.823Z,4.88
2022-10-25T01:54:36.514Z,5.75
2022-10-25T01:57:50.073Z,4.47
2022-10-25T02:00:53.190Z,4.65
2022-10-25T02:04:06.367Z,5.32
2022-10-25T02:10:03.901Z,5.35
2022-10-25T02:13:02.182Z,5.38
2022-10-25T02:16:02.288Z,5.28
2022-10-25T02:18:53.564Z,5.30
2022-10-25T02:21:40.611Z,4.80
2022-10-25T02:24:28.935Z,5.13
2022-10-25T02:27:15.885Z,4.78
2022-10-25T02:30:01.899Z,4.75
2022-10-25T02:32:50.140Z,6.00
2022-10-25T02:35:35.350Z,5.03
2022-10-25T02:38:21.253Z,5.35
2022-10-25T02:41:07.129Z,5.05
2022-10-25T02:43:52.962Z,5.57
2022-10-25T02:46:38.556Z,4.78
2022-10-25T02:49:24.037Z,5.70
2022-10-25T02:52:09.301Z,5.25
2022-10-25T02:54:57.395Z,5.53
2022-10-25T02:57:48.210Z,4.68
2022-10-25T03:00:33.704Z,5.20
2022-10-25T03:03:19.127Z,4.57
2022-10-25T03:06:05.180Z,4.53
2022-10-25T03:08:50.924Z,4.65
2022-10-25T03:11:36.332Z,5.07
2022-10-25T03:14:21.867Z,4.75
2022-10-25T03:17:09.932Z,4.53
2022-10-25T03:19:55.264Z,5.20
2022-10-25T03:22:41.782Z,5.05
2022-10-25T03:25:27.387Z,4.68
2022-10-25T03:28:12.840Z,5.05
2022-10-25T03:31:00.005Z,4.40
2022-10-25T03:33:45.647Z,4.57
2022-10-25T03:36:34.261Z,4.82
2022-10-25T03:39:29.058Z,4.70
2022-10-25T03:42:14.265Z,5.43
2022-10-25T03:44:59.881Z,4.57
2022-10-25T03:47:46.048Z,6.03
2022-10-25T03:50:34.628Z,4.82
2022-10-25T03:53:20.284Z,5.25
2022-10-25T03:56:05.765Z,4.63
2022-10-25T03:58:50.948Z,5.60
2022-10-25T04:01:36.797Z,4.75
2022-10-25T04:04:22.388Z,6.10
2022-10-25T04:07:07.685Z,5.72
2022-10-25T04:09:53.214Z,5.20
2022-10-25T04:12:38.834Z,8.57
2022-10-25T04:15:24.940Z,8.20
2022-10-25T04:18:10.287Z,8.05
2022-10-25T04:20:57.699Z,7.47
2022-10-25T04:23:43.019Z,8.68
2022-10-25T04:26:29.346Z,7.85
2022-10-25T04:29:20.128Z,7.78
2022-10-25T04:32:06.244Z,8.98
2022-10-25T04:34:51.568Z,9.10
2022-10-25T04:37:37.069Z,8.82
2022-10-25T04:40:24.084Z,8.23
2022-10-25T04:43:10.224Z,9.07
2022-10-25T04:46:00.718Z,8.65
2022-10-25T04:48:46.947Z,8.77
2022-10-25T04:51:32.192Z,8.85
2022-10-25T04:54:17.803Z,8.10
2022-10-25T04:57:03.341Z,8.15
2022-10-25T04:59:49.210Z,7.85
2022-10-25T05:02:34.659Z,7.90
2022-10-25T05:05:21.056Z,8.52
2022-10-25T05:08:06.581Z,7.82
2022-10-25T05:10:55.626Z,7.80
2022-10-25T05:13:42.054Z,7.43
2022-10-25T05:16:27.907Z,7.72
2022-10-25T05:19:13.392Z,7.75
2022-10-25T05:21:58.596Z,7.10
2022-10-25T05:24:49.344Z,7.72
2022-10-25T05:27:39.204Z,7.72
2022-10-25T05:30:24.511Z,8.25
2022-10-25T05:33:10.343Z,8.35
2022-10-25T05:35:55.668Z,7.63
2022-10-25T05:38:41.851Z,7.78
2022-10-25T05:41:29.718Z,8.65
2022-10-25T05:44:18.056Z,8.65
2022-10-25T05:47:03.667Z,6.93
2022-10-25T05:49:49.467Z,8.70
2022-10-25T05:52:34.684Z,8.02
2022-10-25T05:55:22.812Z,8.73
2022-10-25T05:58:15.041Z,9.55
2022-10-25T06:01:01.371Z,8.85
2022-10-25T06:03:54.493Z,9.27
2022-10-25T06:06:41.127Z,10.63
2022-10-25T06:09:26.291Z,10.57
2022-10-25T06:12:11.819Z,10.70
2022-10-25T06:14:57.126Z,10.82
2022-10-25T06:17:42.502Z,11.18
2022-10-25T06:20:28.443Z,11.13
2022-10-25T06:23:14.182Z,11.95
2022-10-25T06:26:02.667Z,12.00
2022-10-25T06:28:48.555Z,12.35
2022-10-25T06:31:34.199Z,13.27
2022-10-25T06:34:20.669Z,11.82
2022-10-25T06:37:06.068Z,12.15
2022-10-25T06:39:51.490Z,12.50
2022-10-25T06:42:37.102Z,13.93
2022-10-25T06:45:24.065Z,12.48
2022-10-25T06:48:09.348Z,13.18
2022-10-25T06:51:05.854Z,13.25
2022-10-25T06:53:59.368Z,13.90
2022-10-25T06:56:44.916Z,14.07
2022-10-25T06:59:30.398Z,14.98
2022-10-25T07:02:15.555Z,13.52
2022-10-25T07:05:01.053Z,13.98
2022-10-25T07:07:52.264Z,13.65
2022-10-25T07:10:37.935Z,12.25
2022-10-25T07:13:24.335Z,12.55
2022-10-25T07:16:11.401Z,12.68
2022-10-25T07:19:03.945Z,12.75
2022-10-25T07:21:52.182Z,12.10
2022-10-25T07:24:37.672Z,12.05
2022-10-25T07:27:23.253Z,12.48
2022-10-25T07:30:09.309Z,12.18
2022-10-25T07:32:54.713Z,12.77
2022-10-25T07:35:52.289Z,12.88
2022-10-25T07:38:46.561Z,11.57
2022-10-25T07:41:31.940Z,11.40
2022-10-25T07:44:24.666Z,11.40
2022-10-25T07:47:10.177Z,10.18
2022-10-25T07:49:57.785Z,10.38
2022-10-25T07:52:43.132Z,9.95
2022-10-25T07:55:28.657Z,9.68
2022-10-25T07:58:14.280Z,9.57
2022-10-25T08:01:01.458Z,8.82
2022-10-25T08:03:47.036Z,8.85
2022-10-25T08:06:32.460Z,9.15
2022-10-25T08:09:36.817Z,9.40
2022-10-25T08:12:23.351Z,10.85
2022-10-25T08:15:09.280Z,9.85
2022-10-25T08:18:02.614Z,11.27
2022-10-25T08:21:04.134Z,11.30
2022-10-25T08:23:50.131Z,10.73
2022-10-25T08:26:37.034Z,11.00
2022-10-25T08:29:25.844Z,11.57
2022-10-25T08:32:12.481Z,9.98
2022-10-25T08:34:57.902Z,10.23
2022-10-25T08:37:43.442Z,10.93
2022-10-25T08:40:45.990Z,11.75
2022-10-25T08:43:47.981Z,10.88
2022-10-25T08:46:52.407Z,10.07
2022-10-25T08:49:49.612Z,10.13
2022-10-25T08:53:00.003Z,10.80
2022-10-25T08:56:05.247Z,11.15
2022-10-25T08:59:04.217Z,10.85
2022-10-25T09:01:55.265Z,10.80
2022-10-25T09:04:40.845Z,10.27
2022-10-25T09:07:49.989Z,9.85
2022-10-25T09:11:30.903Z,9.18
2022-10-25T09:14:46.908Z,10.13
2022-10-25T09:20:41.916Z,9.90
2022-10-25T09:23:33.257Z,8.68
2022-10-25T09:26:39.427Z,8.60
2022-10-25T09:29:53.316Z,8.88
2022-10-25T09:32:43.439Z,8.45
2022-10-25T09:35:45.272Z,9.13
2022-10-25T09:38:33.569Z,8.25
2022-10-25T09:41:21.599Z,9.20
2022-10-25T09:44:15.181Z,8.45
2022-10-25T09:47:05.644Z,9.07
2022-10-25T09:50:05.743Z,8.68
2022-10-25T09:53:01.360Z,8.05
2022-10-25T09:55:57.298Z,8.30
2022-10-25T09:58:49.452Z,7.88
2022-10-25T10:01:39.454Z,8.02
2022-10-25T10:04:37.205Z,7.32
2022-10-25T10:07:37.244Z,7.07
2022-10-25T10:10:32.199Z,7.05
2022-10-25T10:13:38.799Z,7.60
2022-10-25T10:16:31.823Z,7.70
2022-10-25T10:19:22.774Z,7.68
2022-10-25T10:22:15.679Z,6.57
2022-10-25T10:25:02.620Z,6.32
2022-10-25T10:27:55.728Z,5.82
2022-10-25T10:30:41.967Z,6.20
2022-10-25T10:33:33.025Z,5.65
2022-10-25T10:36:30.220Z,5.57
2022-10-25T10:39:23.357Z,6.00
2022-10-25T10:42:17.717Z,5.53
2022-10-25T10:48:21.050Z,5.15
2022-10-25T10:51:25.101Z,4.47
2022-10-25T10:54:30.051Z,5.47
2022-10-25T10:57:29.883Z,5.03
2022-10-25T11:00:28.620Z,4.97
2022-10-25T11:03:48.973Z,4.75
2022-10-25T11:06:45.318Z,4.55
2022-10-25T11:09:33.925Z,3.80
2022-10-25T11:12:20.264Z,3.67
2022-10-25T11:15:11.963Z,3.20
2022-10-25T11:18:01.647Z,3.40
2022-10-25T11:21:28.388Z,3.78
2022-10-25T11:24:25.395Z,3.70
2022-10-25T11:27:31.893Z,3.95
2022-10-25T11:30:26.858Z,2.55
2022-10-25T11:33:18.568Z,3.70
2022-10-25T11:36:23.164Z,4.13
2022-10-25T11:39:48.139Z,3.75
2022-10-25T11:42:59.338Z,3.40
2022-10-25T11:45:48.336Z,3.97
2022-10-25T11:48:48.392Z,3.60
2022-10-25T11:51:56.757Z,2.85
2022-10-25T11:55:03.731Z,3.47
2022-10-25T11:57:56.248Z,3.00
2022-10-25T12:01:42.417Z,3.42
2022-10-25T12:04:29.545Z,5.28
2022-10-25T12:07:26.876Z,4.10
2022-10-25T12:10:30.931Z,3.22
2022-10-25T12:13:30.708Z,3.05
2022-10-25T12:16:19.832Z,2.90
2022-10-25T12:19:15.157Z,3.58
2022-10-25T12:22:07.636Z,3.25
2022-10-25T12:25:02.581Z,2.70
2022-10-25T12:30:44.035Z,2.63
2022-10-25T12:33:40.877Z,3.25
2022-10-25T12:36:40.715Z,2.95
2022-10-25T12:39:33.858Z,2.95
2022-10-25T12:42:24.913Z,2.88
2022-10-25T12:45:42.516Z,2.58
2022-10-25T12:48:30.902Z,2.33
2022-10-25T12:51:43.771Z,2.83
2022-10-25T12:54:50.271Z,2.30
2022-10-25T12:57:54.172Z,2.65
2022-10-25T13:01:13.151Z,3.35
2022-10-25T13:04:35.973Z,2.40
2022-10-25T13:07:23.235Z,2.42
2022-10-25T13:10:21.818Z,2.08
2022-10-25T13:13:13.586Z,2.17
2022-10-25T13:16:01.424Z,2.08
2022-10-25T13:18:47.872Z,2.65
2022-10-25T13:21:53.257Z,2.88
2022-10-25T13:24:43.140Z,2.42
2022-10-25T13:27:33.716Z,2.42
2022-10-25T13:30:32.178Z,3.08
2022-10-25T13:33:22.661Z,2.08
2022-10-25T13:36:09.330Z,2.20
2022-10-25T13:39:07.824Z,2.30
2022-10-25T13:41:55.711Z,2.20
2022-10-25T13:44:55.710Z,2.40
2022-10-25T13:47:47.696Z,2.50
2022-10-25T13:50:45.997Z,2.05
2022-10-25T13:53:37.897Z,2.47
2022-10-25T13:56:24.348Z,2.50
2022-10-25T13:59:37.106Z,2.25
2022-10-25T14:02:25.813Z,2.50
2022-10-25T14:05:11.857Z,2.40
2022-10-25T14:08:18.987Z,2.92
2022-10-25T14:11:18.983Z,2.50
2022-10-25T14:14:27.169Z,2.80
2022-10-25T14:17:35.175Z,2.42
2022-10-25T14:20:28.371Z,2.58
2022-10-25T14:23:21.311Z,1.90
2022-10-25T14:26:14.335Z,2.30
2022-10-25T14:29:14.188Z,2.60
2022-10-25T14:31:59.283Z,2.40
2022-10-25T14:34:50.846Z,2.47
2022-10-25T14:37:48.771Z,2.90
2022-10-25T14:40:34.464Z,2.60
2022-10-25T14:43:30.368Z,2.28
2022-10-25T14:46:18.812Z,3.17
2022-10-25T14:49:09.270Z,3.15
2022-10-25T14:52:01.150Z,3.00
2022-10-25T14:54:54.194Z,2.97
2022-10-25T14:57:39.577Z,3.17
2022-10-25T15:00:25.623Z,2.92
2022-10-25T15:03:12.963Z,3.88
2022-10-25T15:06:00.566Z,4.05
2022-10-25T15:08:50.801Z,2.63
2022-10-25T15:11:37.480Z,3.03
2022-10-25T15:14:23.441Z,2.13
2022-10-25T15:17:35.561Z,2.65
2022-10-25T15:20:20.869Z,2.50
2022-10-25T15:23:21.559Z,2.13
2022-10-25T15:27:01.225Z,2.53
2022-10-25T15:29:49.265Z,2.53
2022-10-25T15:32:36.151Z,3.08
2022-10-25T15:35:25.558Z,2.60
2022-10-25T15:38:11.442Z,2.50
2022-10-25T15:40:56.812Z,3.13
2022-10-25T15:43:42.434Z,2.80
2022-10-25T15:46:33.293Z,2.88
2022-10-25T15:49:19.425Z,2.78
2022-10-25T15:52:10.656Z,2.50
2022-10-25T15:54:55.947Z,2.90
2022-10-25T15:57:41.336Z,3.38
2022-10-25T16:00:30.796Z,3.35
2022-10-25T16:03:24.531Z,3.30
2022-10-25T16:06:13.129Z,3.33
2022-10-25T16:09:01.123Z,3.20
2022-10-25T16:11:51.754Z,3.40
2022-10-25T16:14:37.803Z,3.25
2022-10-25T16:17:34.366Z,3.90
2022-10-25T16:20:26.365Z,3.08
2022-10-25T16:23:11.887Z,3.55
2022-10-25T16:25:58.235Z,3.50
2022-10-25T16:28:43.618Z,3.40
2022-10-25T16:31:31.408Z,3.03
2022-10-25T16:34:17.799Z,2.88
2022-10-25T16:37:05.491Z,3.67
2022-10-25T16:39:53.040Z,3.00
2022-10-25T16:42:38.866Z,2.75
2022-10-25T16:45:30.884Z,2.80
2022-10-25T16:48:18.651Z,3.00
2022-10-25T16:51:12.604Z,3.75
2022-10-25T16:54:01.039Z,3.80
2022-10-25T16:56:46.384Z,4.13
2022-10-25T16:59:31.789Z,4.75
2022-10-25T17:02:22.438Z,5.35
2022-10-25T17:05:12.445Z,5.00
2022-10-25T17:07:58.121Z,5.72
2022-10-25T17:10:46.095Z,4.70
2022-10-25T17:13:31.703Z,4.65
2022-10-25T17:16:19.732Z,5.13
2022-10-25T17:19:07.931Z,4.22
2022-10-25T17:21:59.432Z,5.07
2022-10-25T17:24:45.104Z,5.20
2022-10-25T17:27:31.175Z,5.75
2022-10-25T17:30:16.554Z,5.10
2022-10-25T17:33:03.253Z,5.68
2022-10-25T17:35:48.550Z,7.10
2022-10-25T17:38:34.214Z,6.03
2022-10-25T17:41:19.841Z,6.25
2022-10-25T17:44:09.958Z,6.10
2022-10-25T17:46:56.454Z,7.65
2022-10-25T17:49:44.128Z,7.20
2022-10-25T17:52:34.614Z,7.45
2022-10-25T17:55:22.680Z,8.32
2022-10-25T17:58:07.976Z,7.43
2022-10-25T18:00:54.464Z,7.30
2022-10-25T18:03:45.838Z,7.25
2022-10-25T18:06:31.047Z,7.25
2022-10-25T18:09:17.241Z,7.65
2022-10-25T18:12:04.951Z,7.30
2022-10-25T18:14:55.529Z,7.40
2022-10-25T18:17:41.476Z,9.45
2022-10-25T18:20:26.935Z,9.90
2022-10-25T18:23:13.459Z,10.00
2022-10-25T18:25:59.117Z,11.57
2022-10-25T18:28:44.462Z,9.77
2022-10-25T18:31:30.816Z,10.45
2022-10-25T18:34:16.117Z,10.80
2022-10-25T18:37:01.829Z,9.15
2022-10-25T18:39:48.478Z,9.85
2022-10-25T18:42:35.824Z,10.02
2022-10-25T18:45:21.002Z,10.23
2022-10-25T18:48:06.249Z,10.13
2022-10-25T18:50:51.793Z,10.30
2022-10-25T18:53:39.296Z,11.05
2022-10-25T18:56:25.735Z,12.02
2022-10-25T18:59:11.423Z,10.52
2022-10-25T19:01:56.768Z,11.10
2022-10-25T19:04:42.384Z,11.80
2022-10-25T19:07:32.418Z,11.13
2022-10-25T19:10:17.951Z,10.82
2022-10-25T19:13:04.491Z,10.63
2022-10-25T19:15:49.951Z,11.48
2022-10-25T19:18:37.496Z,9.60
2022-10-25T19:21:22.932Z,10.30
2022-10-25T19:24:11.786Z,9.48
2022-10-25T19:26:57.951Z,9.95
2022-10-25T19:29:43.363Z,9.20
2022-10-25T19:32:33.400Z,9.55
2022-10-25T19:35:19.507Z,9.60
2022-10-25T19:38:05.028Z,8.95
2022-10-25T19:40:50.363Z,9.38
2022-10-25T19:43:36.428Z,8.75
2022-10-25T19:46:21.911Z,9.52
2022-10-25T19:49:07.338Z,9.05
2022-10-25T19:51:52.449Z,9.75
2022-10-25T19:54:37.905Z,9.65
2022-10-25T19:57:23.402Z,9.30
2022-10-25T20:00:11.348Z,9.43
2022-10-25T20:03:01.650Z,8.85
2022-10-25T20:05:46.887Z,9.02
2022-10-25T20:08:34.283Z,8.90
2022-10-25T20:11:20.807Z,9.27
2022-10-25T20:14:05.984Z,9.27
2022-10-25T20:16:51.762Z,9.35
2022-10-25T20:19:37.269Z,9.90
2022-10-25T20:22:22.841Z,9.43
2022-10-25T20:25:08.587Z,9.30
2022-10-25T20:27:54.003Z,9.02
2022-10-25T20:30:42.539Z,9.23
2022-10-25T20:33:28.218Z,9.80
2022-10-25T20:36:13.969Z,13.05
2022-10-25T20:38:59.585Z,13.30
2022-10-25T20:41:47.977Z,12.20
2022-10-25T20:44:33.435Z,11.30
2022-10-25T20:47:19.044Z,11.10
2022-10-25T20:50:04.585Z,10.75
2022-10-25T20:53:09.147Z,10.20
2022-10-25T20:55:56.036Z,10.57
2022-10-25T20:58:41.521Z,11.10
2022-10-25T21:01:26.871Z,10.30
2022-10-25T21:04:12.031Z,10.93
2022-10-25T21:06:57.564Z,10.60
2022-10-25T21:09:48.445Z,10.32
2022-10-25T21:12:34.740Z,10.35
2022-10-25T21:15:20.151Z,10.32
2022-10-25T21:18:05.745Z,10.00
2022-10-25T21:20:52.296Z,10.13
2022-10-25T21:23:37.742Z,10.20
2022-10-25T21:26:23.749Z,10.02
2022-10-25T21:29:09.144Z,10.60
2022-10-25T21:31:54.905Z,10.27
2022-10-25T21:34:40.100Z,10.05
2022-10-25T21:37:25.706Z,10.18
2022-10-25T21:40:11.291Z,10.13
2022-10-25T21:42:57.870Z,9.48
2022-10-25T21:45:43.225Z,11.02
2022-10-25T21:48:28.677Z,11.00
2022-10-25T21:51:14.764Z,10.27
2022-10-25T21:54:01.428Z,9.45
2022-10-25T21:56:46.791Z,9.77
2022-10-25T21:59:32.332Z,9.80
2022-10-25T22:02:17.918Z,10.82
2022-10-25T22:05:03.434Z,10.50
2022-10-25T22:07:55.799Z,11.05
2022-10-25T22:10:43.960Z,9.98
2022-10-25T22:13:29.291Z,10.68
2022-10-25T22:16:18.102Z,10.10
2022-10-25T22:19:13.091Z,10.93
2022-10-25T22:21:58.522Z,10.90
2022-10-25T22:24:44.064Z,10.35
2022-10-25T22:27:29.536Z,10.07
2022-10-25T22:30:15.168Z,10.18
2022-10-25T22:33:00.526Z,9.43
2022-10-25T22:35:45.845Z,9.88
2022-10-25T22:38:31.392Z,10.27
2022-10-25T22:41:19.703Z,9.93
2022-10-25T22:44:05.452Z,10.60
2022-10-25T22:46:51.196Z,9.57
2022-10-25T22:49:36.478Z,9.45
2022-10-25T22:52:21.880Z,10.52
2022-10-25T22:55:10.353Z,9.23
2022-10-25T22:57:55.930Z,9.43
2022-10-25T23:00:41.399Z,9.93
2022-10-25T23:03:27.167Z,11.05
2022-10-25T23:06:14.894Z,9.88
2022-10-25T23:09:02.395Z,9.18
2022-10-25T23:11:49.909Z,8.75
2022-10-25T23:14:35.247Z,9.45
2022-10-25T23:17:20.931Z,9.20
2022-10-25T23:20:06.633Z,8.32
2022-10-25T23:22:52.339Z,8.60
2022-10-25T23:25:37.557Z,8.70
2022-10-25T23:28:23.011Z,8.30
2022-10-25T23:31:11.676Z,8.98
2022-10-25T23:33:59.238Z,8.25
2022-10-25T23:36:44.949Z,9.02
2022-10-25T23:39:33.299Z,8.70
2022-10-25T23:42:18.683Z,8.80
2022-10-25T23:45:05.312Z,8.63
2022-10-25T23:47:51.211Z,8.05
2022-10-25T23:50:36.821Z,8.88
2022-10-25T23:53:22.276Z,8.77
2022-10-25T23:56:13.055Z,7.72
2022-10-25T23:58:58.760Z,8.52
